createdAt,value
2018-09-13T00:01:00.352Z,59.15
2018-09-13T00:03:28.981Z,58.45
2018-09-13T00:05:57.801Z,58.58
2018-09-13T00:08:26.588Z,58.28
2018-09-13T00:10:55.330Z,58.21
2018-09-13T00:13:24.560Z,58.15
2018-09-13T00:15:53.328Z,58.43
2018-09-13T00:18:21.986Z,57.99
2018-09-13T00:20:50.703Z,58.29
2018-09-13T00:23:19.477Z,58.48
2018-09-13T00:25:48.194Z,58.28
2018-09-13T00:28:16.883Z,58.77
2018-09-13T00:30:45.700Z,59.63
2018-09-13T00:33:14.409Z,58.58
2018-09-13T00:35:43.212Z,59.01
2018-09-13T00:38:12.179Z,58.65
2018-09-13T00:40:40.852Z,58.94
2018-09-13T00:43:09.547Z,59.25
2018-09-13T00:45:38.270Z,60.58
2018-09-13T00:48:06.946Z,60.79
2018-09-13T00:50:35.658Z,59.83
2018-09-13T00:53:04.511Z,60.20
2018-09-13T00:55:33.231Z,58.81
2018-09-13T00:58:01.937Z,59.15
2018-09-13T01:00:30.739Z,59.40
2018-09-13T01:02:59.471Z,59.90
2018-09-13T01:05:28.230Z,60.50
2018-09-13T01:07:57.103Z,60.59
2018-09-13T01:10:26.371Z,60.24
2018-09-13T01:12:55.164Z,61.31
2018-09-13T01:15:24.499Z,61.32
2018-09-13T01:17:53.245Z,61.33
2018-09-13T01:20:22.008Z,61.48
2018-09-13T01:22:50.752Z,61.56
2018-09-13T01:25:19.531Z,62.06
2018-09-13T01:27:48.266Z,60.93
2018-09-13T01:30:16.996Z,61.01
2018-09-13T01:32:45.687Z,61.17
2018-09-13T01:35:14.444Z,62.00
2018-09-13T01:37:43.210Z,62.02
2018-09-13T01:40:12.025Z,61.77
2018-09-13T01:42:40.740Z,61.86
2018-09-13T01:45:09.530Z,61.94
2018-09-13T01:47:38.291Z,62.04
2018-09-13T01:50:07.040Z,62.14
2018-09-13T01:52:35.775Z,61.78
2018-09-13T01:55:04.553Z,61.94
2018-09-13T01:57:33.303Z,61.76
2018-09-13T02:00:02.135Z,62.61
2018-09-13T02:02:30.839Z,62.01
2018-09-13T02:04:59.623Z,62.44
2018-09-13T02:07:28.294Z,63.31
2018-09-13T02:09:57.066Z,62.70
2018-09-13T02:12:25.795Z,62.56
2018-09-13T02:14:54.520Z,63.29
2018-09-13T02:17:23.248Z,63.36
2018-09-13T02:19:51.974Z,63.78
2018-09-13T02:22:20.759Z,64.05
2018-09-13T02:24:49.513Z,64.89
2018-09-13T02:27:18.190Z,65.03
2018-09-13T02:29:46.867Z,63.03
2018-09-13T02:32:15.522Z,65.06
2018-09-13T02:34:44.185Z,64.68
2018-09-13T02:37:13.002Z,65.43
2018-09-13T02:39:41.701Z,65.15
2018-09-13T02:42:10.457Z,64.92
2018-09-13T02:44:39.208Z,65.54
2018-09-13T02:47:08.007Z,65.72
2018-09-13T02:49:36.791Z,65.98
2018-09-13T02:52:05.618Z,66.30
2018-09-13T02:54:34.286Z,66.18
2018-09-13T02:57:03.027Z,66.53
2018-09-13T02:59:31.716Z,66.46
2018-09-13T03:02:00.849Z,65.54
2018-09-13T03:04:29.634Z,65.58
2018-09-13T03:06:58.326Z,65.05
2018-09-13T03:09:27.007Z,65.29
2018-09-13T03:11:55.809Z,66.21
2018-09-13T03:14:24.486Z,65.82
2018-09-13T03:16:53.282Z,65.88
2018-09-13T03:19:22.060Z,65.91
2018-09-13T03:21:50.830Z,66.84
2018-09-13T03:24:19.539Z,66.35
2018-09-13T03:26:48.233Z,66.24
2018-09-13T03:29:17.078Z,66.66
2018-09-13T03:31:45.760Z,66.34
2018-09-13T03:34:14.546Z,66.92
2018-09-13T03:36:43.237Z,67.33
2018-09-13T03:39:12.971Z,67.35
2018-09-13T03:41:41.705Z,67.94
2018-09-13T03:44:10.402Z,67.59
2018-09-13T03:46:39.075Z,68.17
2018-09-13T03:49:07.792Z,68.15
2018-09-13T03:51:36.553Z,68.73
2018-09-13T03:54:05.222Z,69.60
2018-09-13T03:56:34.021Z,69.34
2018-09-13T03:59:02.833Z,68.96
2018-09-13T04:01:31.615Z,69.66
2018-09-13T04:04:00.511Z,69.36
2018-09-13T04:06:29.268Z,69.62
2018-09-13T04:08:58.130Z,69.41
2018-09-13T04:11:26.850Z,69.41
2018-09-13T04:13:56.727Z,69.65
2018-09-13T04:16:28.943Z,69.70
2018-09-13T04:18:57.717Z,69.43
2018-09-13T04:21:26.408Z,69.42
2018-09-13T04:23:55.137Z,68.95
2018-09-13T04:26:23.900Z,69.04
2018-09-13T04:28:53.152Z,69.21
2018-09-13T04:31:21.928Z,69.14
2018-09-13T04:33:50.701Z,69.05
2018-09-13T04:36:19.464Z,68.70
2018-09-13T04:38:48.196Z,68.29
2018-09-13T04:41:16.873Z,68.53
2018-09-13T04:43:45.635Z,68.00
2018-09-13T04:46:14.348Z,68.53
2018-09-13T04:48:43.093Z,68.46
2018-09-13T04:51:11.788Z,68.07
2018-09-13T04:53:40.596Z,67.63
2018-09-13T04:56:09.443Z,67.73
2018-09-13T04:58:38.299Z,67.46
2018-09-13T05:01:07.025Z,67.95
2018-09-13T05:03:36.018Z,67.34
2018-09-13T05:06:04.770Z,66.89
2018-09-13T05:08:33.611Z,66.80
2018-09-13T05:11:02.277Z,66.58
2018-09-13T05:13:31.043Z,66.00
2018-09-13T05:15:59.863Z,65.40
2018-09-13T05:18:28.745Z,65.91
2018-09-13T05:20:57.490Z,66.57
2018-09-13T05:23:26.240Z,65.92
2018-09-13T05:25:54.957Z,64.90
2018-09-13T05:28:23.695Z,64.38
2018-09-13T05:30:52.388Z,64.90
2018-09-13T05:33:21.202Z,64.80
2018-09-13T05:35:49.919Z,64.58
2018-09-13T05:38:18.844Z,65.24
2018-09-13T05:40:47.667Z,64.72
2018-09-13T05:43:16.614Z,64.30
2018-09-13T05:45:45.520Z,63.96
2018-09-13T05:48:14.309Z,65.02
2018-09-13T05:50:43.067Z,65.04
2018-09-13T05:53:11.780Z,65.25
2018-09-13T05:55:40.644Z,64.92
2018-09-13T05:58:09.526Z,64.95
2018-09-13T06:00:38.379Z,65.48
2018-09-13T06:03:07.231Z,64.22
2018-09-13T06:05:35.920Z,64.68
2018-09-13T06:08:04.766Z,64.48
2018-09-13T06:10:34.376Z,64.15
2018-09-13T06:13:03.151Z,64.47
2018-09-13T06:15:31.941Z,64.16
2018-09-13T06:18:00.622Z,63.83
2018-09-13T06:20:29.337Z,63.68
2018-09-13T06:22:58.228Z,63.93
2018-09-13T06:25:27.008Z,64.12
2018-09-13T06:27:55.840Z,63.76
2018-09-13T06:30:24.563Z,63.14
2018-09-13T06:33:11.215Z,62.89
2018-09-13T06:35:40.060Z,62.90
2018-09-13T06:38:08.907Z,62.31
2018-09-13T06:40:37.754Z,62.02
2018-09-13T06:43:06.617Z,62.16
2018-09-13T06:45:35.453Z,62.35
2018-09-13T06:48:04.710Z,61.26
2018-09-13T06:50:33.867Z,61.06
2018-09-13T06:53:02.608Z,61.17
2018-09-13T06:55:31.286Z,60.58
2018-09-13T06:57:59.981Z,60.77
2018-09-13T07:00:28.959Z,60.00
2018-09-13T07:02:57.691Z,60.32
2018-09-13T07:05:26.556Z,60.54
2018-09-13T07:07:55.383Z,58.99
2018-09-13T07:10:24.096Z,59.41
2018-09-13T07:12:52.954Z,59.27
2018-09-13T07:15:21.699Z,59.26
2018-09-13T07:17:50.512Z,58.62
2018-09-13T07:20:19.388Z,58.42
2018-09-13T07:22:48.252Z,57.88
2018-09-13T07:25:17.031Z,58.01
2018-09-13T07:27:46.105Z,57.74
2018-09-13T07:30:16.292Z,57.01
2018-09-13T07:32:45.073Z,57.75
2018-09-13T07:35:13.886Z,57.11
2018-09-13T07:37:42.699Z,56.93
2018-09-13T07:40:11.434Z,57.43
2018-09-13T07:42:40.392Z,56.30
2018-09-13T07:45:09.035Z,56.70
2018-09-13T07:47:37.885Z,56.54
2018-09-13T07:50:06.968Z,56.49
2018-09-13T07:52:35.627Z,55.33
2018-09-13T07:55:04.499Z,54.27
2018-09-13T07:57:33.397Z,54.53
2018-09-13T08:00:02.160Z,55.23
2018-09-13T08:02:30.859Z,54.15
2018-09-13T08:04:59.619Z,55.02
2018-09-13T08:07:28.373Z,54.68
2018-09-13T08:09:57.083Z,55.22
2018-09-13T08:12:25.839Z,54.17
2018-09-13T08:14:54.563Z,54.42
2018-09-13T08:17:23.590Z,53.79
2018-09-13T08:19:52.701Z,53.74
2018-09-13T08:22:21.495Z,53.16
2018-09-13T08:24:50.275Z,52.97
2018-09-13T08:27:19.103Z,51.78
2018-09-13T08:29:49.991Z,52.08
2018-09-13T08:32:18.738Z,50.22
2018-09-13T08:34:47.502Z,50.94
2018-09-13T08:37:16.254Z,50.81
2018-09-13T08:39:45.103Z,49.91
2018-09-13T08:42:13.934Z,51.40
2018-09-13T08:44:42.628Z,51.42
2018-09-13T08:47:11.347Z,50.75
2018-09-13T08:49:40.072Z,51.42
2018-09-13T08:52:08.840Z,51.26
2018-09-13T08:54:37.653Z,51.46
2018-09-13T08:57:06.446Z,51.69
2018-09-13T08:59:35.302Z,50.51
2018-09-13T09:02:04.059Z,50.23
2018-09-13T09:04:32.934Z,50.95
2018-09-13T09:07:01.702Z,50.65
2018-09-13T09:09:30.351Z,49.86
2018-09-13T09:11:59.191Z,49.87
2018-09-13T09:14:27.842Z,49.96
2018-09-13T09:16:56.534Z,49.64
2018-09-13T09:19:25.578Z,49.39
2018-09-13T09:21:54.466Z,49.41
2018-09-13T09:24:23.138Z,49.90
2018-09-13T09:26:51.851Z,48.77
2018-09-13T09:29:20.623Z,49.07
2018-09-13T09:31:49.436Z,48.82
2018-09-13T09:34:18.192Z,48.03
2018-09-13T09:36:47.236Z,48.41
2018-09-13T09:39:16.031Z,48.79
2018-09-13T09:41:44.738Z,49.67
2018-09-13T09:44:13.443Z,49.72
2018-09-13T09:46:42.289Z,49.42
2018-09-13T09:49:10.966Z,49.65
2018-09-13T09:51:39.718Z,50.42
2018-09-13T09:54:08.507Z,50.27
2018-09-13T09:56:39.372Z,49.14
2018-09-13T09:59:08.066Z,48.91
2018-09-13T10:01:40.884Z,47.88
2018-09-13T10:04:09.616Z,47.46
2018-09-13T10:06:38.563Z,47.36
2018-09-13T10:09:09.030Z,46.03
2018-09-13T10:11:37.817Z,45.86
2018-09-13T10:14:06.494Z,44.21
2018-09-13T10:16:40.407Z,44.14
2018-09-13T10:19:14.231Z,44.76
2018-09-13T10:22:47.852Z,42.46
2018-09-13T10:25:21.687Z,43.28
2018-09-13T10:28:55.946Z,43.64
2018-09-13T10:31:29.984Z,45.12
2018-09-13T10:34:03.875Z,45.56
2018-09-13T10:36:37.820Z,45.84
2018-09-13T10:39:14.339Z,45.33
2018-09-13T10:41:48.599Z,47.43
2018-09-13T10:44:22.534Z,45.91
2018-09-13T10:46:56.444Z,44.98
2018-09-13T10:50:31.136Z,45.22
2018-09-13T10:53:08.290Z,42.60
2018-09-13T10:55:37.010Z,42.51
2018-09-13T10:58:05.959Z,42.08
2018-09-13T11:00:34.661Z,40.55
2018-09-13T11:03:03.415Z,39.75
2018-09-13T11:05:32.182Z,38.55
2018-09-13T11:08:00.938Z,38.35
2018-09-13T11:10:29.882Z,38.35
2018-09-13T11:13:03.255Z,38.17
2018-09-13T11:15:34.947Z,37.83
2018-09-13T11:18:05.000Z,38.17
2018-09-13T11:20:34.158Z,38.03
2018-09-13T11:23:03.203Z,38.46
2018-09-13T11:25:32.095Z,39.49
2018-09-13T11:28:00.782Z,40.52
2018-09-13T11:30:29.732Z,39.38
2018-09-13T11:32:58.416Z,39.05
2018-09-13T11:35:27.143Z,38.02
2018-09-13T11:37:56.069Z,38.16
2018-09-13T11:40:24.919Z,37.06
2018-09-13T11:42:53.509Z,36.21
2018-09-13T11:45:22.479Z,37.62
2018-09-13T11:47:51.193Z,37.63
2018-09-13T11:50:19.996Z,39.33
2018-09-13T11:52:49.098Z,39.80
2018-09-13T11:55:17.935Z,42.68
2018-09-13T11:57:46.911Z,41.48
2018-09-13T12:00:17.491Z,41.85
2018-09-13T12:02:46.366Z,41.64
2018-09-13T12:05:15.223Z,40.53
2018-09-13T12:07:43.979Z,37.48
2018-09-13T12:10:13.025Z,36.35
2018-09-13T12:12:41.704Z,35.79
2018-09-13T12:15:10.965Z,34.92
2018-09-13T12:17:39.783Z,35.81
2018-09-13T12:20:08.615Z,35.47
2018-09-13T12:22:37.652Z,35.30
2018-09-13T12:25:06.400Z,34.10
2018-09-13T12:27:35.566Z,35.93
2018-09-13T12:30:05.637Z,36.65
2018-09-13T12:32:34.472Z,37.98
2018-09-13T12:35:03.213Z,38.92
2018-09-13T12:37:31.987Z,39.27
2018-09-13T12:40:00.763Z,40.49
2018-09-13T12:42:29.474Z,40.89
2018-09-13T12:44:58.229Z,41.88
2018-09-13T12:47:27.242Z,41.46
2018-09-13T12:49:56.268Z,42.09
2018-09-13T12:52:25.071Z,41.54
2018-09-13T12:54:54.210Z,40.96
2018-09-13T12:57:23.686Z,40.28
2018-09-13T12:59:52.490Z,39.25
2018-09-13T13:02:21.314Z,39.24
2018-09-13T13:04:50.220Z,40.30
2018-09-13T13:07:19.188Z,40.44
2018-09-13T13:09:48.218Z,38.88
2018-09-13T13:12:17.325Z,39.03
2018-09-13T13:14:46.257Z,38.14
2018-09-13T13:17:15.138Z,38.36
2018-09-13T13:19:44.088Z,35.51
2018-09-13T13:22:12.948Z,34.23
2018-09-13T13:24:41.738Z,34.36
2018-09-13T13:27:10.705Z,34.75
2018-09-13T13:29:39.513Z,33.25
2018-09-13T13:32:08.367Z,32.83
2018-09-13T13:34:37.356Z,32.41
2018-09-13T13:37:06.121Z,32.60
2018-09-13T13:39:34.979Z,30.97
2018-09-13T13:42:03.802Z,31.65
2018-09-13T13:44:32.757Z,30.61
2018-09-13T13:47:01.715Z,30.79
2018-09-13T13:49:30.625Z,31.90
2018-09-13T13:51:59.512Z,30.86
2018-09-13T13:54:28.318Z,31.55
2018-09-13T13:56:57.127Z,31.72
2018-09-13T13:59:25.985Z,32.19
2018-09-13T14:01:55.022Z,32.41
2018-09-13T14:04:23.916Z,34.93
2018-09-13T14:06:52.896Z,35.59
2018-09-13T14:09:21.710Z,35.75
2018-09-13T14:11:50.575Z,37.60
2018-09-13T14:14:19.327Z,37.15
2018-09-13T14:16:48.188Z,38.58
2018-09-13T14:19:17.091Z,39.39
2018-09-13T14:21:45.939Z,39.38
2018-09-13T14:24:14.783Z,39.83
2018-09-13T14:26:43.671Z,40.92
2018-09-13T14:29:12.584Z,41.51
2018-09-13T14:31:41.399Z,41.52
2018-09-13T14:37:09.850Z,42.85
2018-09-13T14:39:38.759Z,43.17
2018-09-13T14:42:07.615Z,42.62
2018-09-13T14:44:36.628Z,43.54
2018-09-13T14:47:05.382Z,43.37
2018-09-13T14:49:34.280Z,43.79
2018-09-13T14:52:03.124Z,43.52
2018-09-13T14:54:32.095Z,42.43
2018-09-13T14:57:01.111Z,41.61
2018-09-13T14:59:30.119Z,39.77
2018-09-13T15:01:58.968Z,39.55
2018-09-13T15:04:27.755Z,38.62
2018-09-13T15:06:56.768Z,37.96
2018-09-13T15:09:25.690Z,38.21
2018-09-13T15:11:54.620Z,38.63
2018-09-13T15:14:23.477Z,38.00
2018-09-13T15:16:52.270Z,37.23
2018-09-13T15:19:21.100Z,38.75
2018-09-13T15:21:49.958Z,38.64
2018-09-13T15:24:18.854Z,38.38
2018-09-13T15:26:47.741Z,40.14
2018-09-13T15:29:16.606Z,40.28
2018-09-13T15:31:45.441Z,41.71
2018-09-13T15:34:14.271Z,42.23
2018-09-13T15:36:43.152Z,43.16
2018-09-13T15:39:13.105Z,42.28
2018-09-13T15:41:42.179Z,41.76
2018-09-13T15:44:11.937Z,42.61
2018-09-13T15:46:40.963Z,43.20
2018-09-13T15:49:09.830Z,42.30
2018-09-13T15:51:38.786Z,42.51
2018-09-13T15:54:19.838Z,41.19
2018-09-13T15:57:08.633Z,42.13
2018-09-13T15:59:37.378Z,42.01
2018-09-13T16:02:06.343Z,42.46
2018-09-13T16:04:35.196Z,42.45
2018-09-13T16:07:04.027Z,42.93
2018-09-13T16:09:33.004Z,43.31
2018-09-13T16:12:01.846Z,43.95
2018-09-13T16:14:30.814Z,44.32
2018-09-13T16:17:01.725Z,45.11
2018-09-13T16:19:31.376Z,46.55
2018-09-13T16:22:00.551Z,46.71
2018-09-13T16:24:29.304Z,46.84
2018-09-13T16:26:58.127Z,47.48
2018-09-13T16:29:27.019Z,48.26
2018-09-13T16:34:36.418Z,48.61
2018-09-13T16:37:10.806Z,49.78
2018-09-13T16:39:49.167Z,49.54
2018-09-13T16:42:23.119Z,50.50
2018-09-13T16:44:55.678Z,50.68
2018-09-13T16:47:30.738Z,50.82
2018-09-13T16:50:00.743Z,51.36
2018-09-13T16:52:32.283Z,51.97
2018-09-13T16:55:01.135Z,51.49
2018-09-13T16:57:29.968Z,52.24
2018-09-13T16:59:58.803Z,52.17
2018-09-13T17:02:27.653Z,52.09
2018-09-13T17:04:56.608Z,52.24
2018-09-13T17:07:25.469Z,53.04
2018-09-13T17:09:54.310Z,52.17
2018-09-13T17:12:23.254Z,52.79
2018-09-13T17:14:52.089Z,52.66
2018-09-13T17:17:21.015Z,52.87
2018-09-13T17:19:49.820Z,53.39
2018-09-13T17:22:18.860Z,53.83
2018-09-13T17:24:47.849Z,53.59
2018-09-13T17:27:16.659Z,53.63
2018-09-13T17:29:45.515Z,53.45
2018-09-13T17:32:14.383Z,54.73
2018-09-13T17:34:43.191Z,54.86
2018-09-13T17:37:12.014Z,54.68
2018-09-13T17:39:40.846Z,55.02
2018-09-13T17:42:09.681Z,55.11
2018-09-13T17:44:38.669Z,55.46
2018-09-13T17:47:07.548Z,56.06
2018-09-13T17:49:36.446Z,55.76
2018-09-13T17:52:05.309Z,56.14
2018-09-13T17:54:34.177Z,56.67
2018-09-13T17:57:03.809Z,56.22
2018-09-13T17:59:32.553Z,57.01
2018-09-13T18:02:01.308Z,56.30
2018-09-13T18:04:30.058Z,56.49
2018-09-13T18:06:58.771Z,56.40
2018-09-13T18:09:27.629Z,56.94
2018-09-13T18:11:56.402Z,56.54
2018-09-13T18:14:25.221Z,56.20
2018-09-13T18:16:54.030Z,55.79
2018-09-13T18:19:22.845Z,56.79
2018-09-13T18:21:52.379Z,56.36
2018-09-13T18:24:21.169Z,57.12
2018-09-13T18:26:49.910Z,57.43
2018-09-13T18:29:18.754Z,57.40
2018-09-13T18:31:47.567Z,57.90
2018-09-13T18:34:16.379Z,58.09
2018-09-13T18:36:45.079Z,58.36
2018-09-13T18:39:13.987Z,58.75
2018-09-13T18:41:42.770Z,59.09
2018-09-13T18:44:11.567Z,58.87
2018-09-13T18:46:40.317Z,58.53
2018-09-13T18:49:09.202Z,58.69
2018-09-13T18:51:37.984Z,58.88
2018-09-13T18:54:06.881Z,59.21
2018-09-13T18:56:35.705Z,59.39
2018-09-13T18:59:04.498Z,59.29
2018-09-13T19:01:33.405Z,60.11
2018-09-13T19:06:49.282Z,60.65
2018-09-13T19:09:17.988Z,60.72
2018-09-13T19:11:46.825Z,60.43
2018-09-13T19:14:15.622Z,61.32
2018-09-13T19:16:44.727Z,61.25
2018-09-13T19:19:13.505Z,61.12
2018-09-13T19:21:42.448Z,61.10
2018-09-13T19:24:11.435Z,61.38
2018-09-13T19:26:40.225Z,61.04
2018-09-13T19:29:09.079Z,60.89
2018-09-13T19:31:37.983Z,61.16
2018-09-13T19:34:06.708Z,61.55
2018-09-13T19:36:35.475Z,61.30
2018-09-13T19:39:05.100Z,61.50
2018-09-13T19:41:33.897Z,61.94
2018-09-13T19:44:02.709Z,61.71
2018-09-13T19:46:31.575Z,60.74
2018-09-13T19:49:00.359Z,61.63
2018-09-13T19:51:29.184Z,61.43
2018-09-13T19:53:57.942Z,62.05
2018-09-13T19:56:26.737Z,62.62
2018-09-13T19:58:55.556Z,63.02
2018-09-13T20:01:24.471Z,63.29
2018-09-13T20:03:53.250Z,63.48
2018-09-13T20:06:22.011Z,63.60
2018-09-13T20:08:51.184Z,63.62
2018-09-13T20:11:20.118Z,63.54
2018-09-13T20:13:48.971Z,63.44
2018-09-13T20:16:19.306Z,64.67
2018-09-13T20:18:48.023Z,64.76
2018-09-13T20:21:16.925Z,65.88
2018-09-13T20:23:45.719Z,64.79
2018-09-13T20:26:14.537Z,64.57
2018-09-13T20:28:43.343Z,64.47
2018-09-13T20:31:12.283Z,64.69
2018-09-13T20:33:41.084Z,64.37
2018-09-13T20:36:09.796Z,63.55
2018-09-13T20:38:38.689Z,64.46
2018-09-13T20:41:07.525Z,64.29
2018-09-13T20:43:36.245Z,64.38
2018-09-13T20:46:05.089Z,64.18
2018-09-13T20:48:33.851Z,63.97
2018-09-13T20:51:03.195Z,64.22
2018-09-13T20:53:31.888Z,64.79
2018-09-13T20:56:01.255Z,65.10
2018-09-13T20:58:29.937Z,65.36
2018-09-13T21:00:58.683Z,64.97
2018-09-13T21:03:27.448Z,65.31
2018-09-13T21:05:56.178Z,65.06
2018-09-13T21:08:25.002Z,66.21
2018-09-13T21:10:53.918Z,65.33
2018-09-13T21:13:22.789Z,66.16
2018-09-13T21:15:51.556Z,66.07
2018-09-13T21:18:22.526Z,66.43
2018-09-13T21:20:51.256Z,66.39
2018-09-13T21:23:20.103Z,66.40
2018-09-13T21:25:48.770Z,66.49
2018-09-13T21:28:17.545Z,66.75
2018-09-13T21:30:46.300Z,66.53
2018-09-13T21:33:15.030Z,66.61
2018-09-13T21:35:44.158Z,66.88
2018-09-13T21:38:13.051Z,66.13
2018-09-13T21:40:41.909Z,66.46
2018-09-13T21:43:10.622Z,66.27
2018-09-13T21:45:39.395Z,66.01
2018-09-13T21:48:08.094Z,66.32
2018-09-13T21:50:36.914Z,66.70
2018-09-13T21:53:05.736Z,66.19
2018-09-13T21:55:34.518Z,66.45
2018-09-13T21:58:03.441Z,66.52
2018-09-13T22:00:32.246Z,65.68
2018-09-13T22:03:01.066Z,66.08
2018-09-13T22:05:29.856Z,66.42
2018-09-13T22:07:58.561Z,66.19
2018-09-13T22:10:27.296Z,65.78
2018-09-13T22:12:56.111Z,66.03
2018-09-13T22:15:24.804Z,66.83
2018-09-13T22:17:53.577Z,67.04
2018-09-13T22:20:22.406Z,66.80
2018-09-13T22:22:51.131Z,66.99
2018-09-13T22:25:19.838Z,67.01
2018-09-13T22:27:48.693Z,67.11
2018-09-13T22:30:18.795Z,67.96
2018-09-13T22:32:47.540Z,68.19
2018-09-13T22:35:16.338Z,68.75
2018-09-13T22:37:45.042Z,69.61
2018-09-13T22:40:13.876Z,69.88
2018-09-13T22:42:42.658Z,69.97
2018-09-13T22:45:11.323Z,70.26
2018-09-13T22:47:40.106Z,70.54
2018-09-13T22:50:08.928Z,70.98
2018-09-13T22:52:37.715Z,70.60
2018-09-13T22:55:06.457Z,70.91
2018-09-13T22:57:35.240Z,71.60
2018-09-13T23:00:05.742Z,71.84
2018-09-13T23:02:39.902Z,72.24
2018-09-13T23:05:08.643Z,71.97
2018-09-13T23:07:37.451Z,71.82
2018-09-13T23:10:06.397Z,72.54
2018-09-13T23:12:35.190Z,72.28
2018-09-13T23:15:03.928Z,72.38
2018-09-13T23:17:32.722Z,72.28
2018-09-13T23:20:01.512Z,72.50
2018-09-13T23:22:30.292Z,72.84
2018-09-13T23:24:59.045Z,73.45
2018-09-13T23:27:27.714Z,73.62
2018-09-13T23:29:56.471Z,73.46
2018-09-13T23:32:25.272Z,73.57
2018-09-13T23:34:54.067Z,73.90
2018-09-13T23:37:22.871Z,74.12
2018-09-13T23:39:51.853Z,74.15
2018-09-13T23:42:20.306Z,74.08
2018-09-13T23:44:49.046Z,73.74
2018-09-13T23:47:17.719Z,74.02
2018-09-13T23:49:46.543Z,74.32
2018-09-13T23:52:15.259Z,74.34
2018-09-13T23:54:43.938Z,74.59
2018-09-13T23:57:12.952Z,74.32
2018-09-13T23:59:41.719Z,74.40
